sensor_id;sensor_type;location;lat;lon;timestamp;P1;durP1;ratioP1;P2;durP2;ratioP2
3415;SDS011;1721;51.238;9.562;2022-10-18T00:00:29;11.60;;;3.90;;
3415;SDS011;1721;51.238;9.562;2022-10-18T00:02:55;15.07;;;4.60;;
3415;SDS011;1721;51.238;9.562;2022-10-18T00:05:20;11.70;;;4.47;;
3415;SDS011;1721;51.238;9.562;2022-10-18T00:07:46;10.83;;;4.60;;
3415;SDS011;1721;51.238;9.562;2022-10-18T00:10:11;10.88;;;3.75;;
3415;SDS011;1721;51.238;9.562;2022-10-18T00:12:37;17.42;;;4.60;;
3415;SDS011;1721;51.238;9.562;2022-10-18T00:15:03;7.50;;;3.57;;
3415;SDS011;1721;51.238;9.562;2022-10-18T00:17:31;11.53;;;3.40;;
3415;SDS011;1721;51.238;9.562;2022-10-18T00:19:58;5.77;;;3.30;;
3415;SDS011;1721;51.238;9.562;2022-10-18T00:22:24;9.00;;;3.20;;
3415;SDS011;1721;51.238;9.562;2022-10-18T00:24:49;7.10;;;3.33;;
3415;SDS011;1721;51.238;9.562;2022-10-18T00:27:15;12.90;;;3.80;;
3415;SDS011;1721;51.238;9.562;2022-10-18T00:29:41;8.27;;;3.67;;
3415;SDS011;1721;51.238;9.562;2022-10-18T00:32:06;14.70;;;4.67;;
3415;SDS011;1721;51.238;9.562;2022-10-18T00:34:32;18.10;;;4.83;;
3415;SDS011;1721;51.238;9.562;2022-10-18T00:36:57;8.07;;;3.80;;
3415;SDS011;1721;51.238;9.562;2022-10-18T00:39:23;12.77;;;4.50;;
3415;SDS011;1721;51.238;9.562;2022-10-18T00:41:49;17.60;;;5.17;;
3415;SDS011;1721;51.238;9.562;2022-10-18T00:46:41;18.88;;;6.60;;
3415;SDS011;1721;51.238;9.562;2022-10-18T00:51:45;15.23;;;6.75;;
3415;SDS011;1721;51.238;9.562;2022-10-18T00:54:14;18.17;;;7.18;;
3415;SDS011;1721;51.238;9.562;2022-10-18T00:56:41;16.13;;;7.70;;
3415;SDS011;1721;51.238;9.562;2022-10-18T00:59:09;15.02;;;6.50;;
3415;SDS011;1721;51.238;9.562;2022-10-18T01:01:35;18.40;;;7.38;;
3415;SDS011;1721;51.238;9.562;2022-10-18T01:04:01;18.80;;;7.20;;
3415;SDS011;1721;51.238;9.562;2022-10-18T01:06:27;20.88;;;7.40;;
3415;SDS011;1721;51.238;9.562;2022-10-18T01:08:58;17.08;;;7.88;;
3415;SDS011;1721;51.238;9.562;2022-10-18T01:11:54;18.13;;;7.90;;
3415;SDS011;1721;51.238;9.562;2022-10-18T01:20:18;16.33;;;6.93;;
3415;SDS011;1721;51.238;9.562;2022-10-18T01:23:02;14.70;;;5.70;;
3415;SDS011;1721;51.238;9.562;2022-10-18T01:28:33;14.93;;;5.95;;
3415;SDS011;1721;51.238;9.562;2022-10-18T01:31:11;10.43;;;4.40;;
3415;SDS011;1721;51.238;9.562;2022-10-18T01:33:45;10.27;;;4.47;;
3415;SDS011;1721;51.238;9.562;2022-10-18T01:36:22;11.75;;;4.30;;
3415;SDS011;1721;51.238;9.562;2022-10-18T01:38:56;9.80;;;4.40;;
3415;SDS011;1721;51.238;9.562;2022-10-18T01:41:25;11.05;;;4.60;;
3415;SDS011;1721;51.238;9.562;2022-10-18T01:43:53;12.52;;;4.57;;
3415;SDS011;1721;51.238;9.562;2022-10-18T01:46:23;10.20;;;4.80;;
3415;SDS011;1721;51.238;9.562;2022-10-18T01:48:53;12.23;;;4.60;;
3415;SDS011;1721;51.238;9.562;2022-10-18T01:51:23;11.52;;;4.75;;
3415;SDS011;1721;51.238;9.562;2022-10-18T01:53:53;11.90;;;4.90;;
3415;SDS011;1721;51.238;9.562;2022-10-18T01:56:30;11.43;;;4.47;;
3415;SDS011;1721;51.238;9.562;2022-10-18T01:59:06;12.68;;;5.10;;
3415;SDS011;1721;51.238;9.562;2022-10-18T02:07:01;11.48;;;5.00;;
3415;SDS011;1721;51.238;9.562;2022-10-18T02:09:34;10.18;;;4.50;;
3415;SDS011;1721;51.238;9.562;2022-10-18T02:12:06;13.15;;;5.55;;
3415;SDS011;1721;51.238;9.562;2022-10-18T02:14:36;10.40;;;5.22;;
3415;SDS011;1721;51.238;9.562;2022-10-18T02:17:04;12.43;;;5.10;;
3415;SDS011;1721;51.238;9.562;2022-10-18T02:19:35;10.45;;;5.40;;
3415;SDS011;1721;51.238;9.562;2022-10-18T02:22:05;12.52;;;5.28;;
3415;SDS011;1721;51.238;9.562;2022-10-18T02:24:36;10.40;;;4.75;;
3415;SDS011;1721;51.238;9.562;2022-10-18T02:27:03;11.95;;;5.03;;
3415;SDS011;1721;51.238;9.562;2022-10-18T02:29:29;13.02;;;5.15;;
3415;SDS011;1721;51.238;9.562;2022-10-18T02:32:00;12.32;;;5.32;;
3415;SDS011;1721;51.238;9.562;2022-10-18T02:34:57;14.03;;;4.83;;
3415;SDS011;1721;51.238;9.562;2022-10-18T02:37:42;12.80;;;5.65;;
3415;SDS011;1721;51.238;9.562;2022-10-18T02:40:10;12.70;;;5.13;;
3415;SDS011;1721;51.238;9.562;2022-10-18T02:42:37;14.03;;;5.60;;
3415;SDS011;1721;51.238;9.562;2022-10-18T02:45:08;12.15;;;5.72;;
3415;SDS011;1721;51.238;9.562;2022-10-18T02:47:34;12.07;;;5.20;;
3415;SDS011;1721;51.238;9.562;2022-10-18T02:50:00;12.37;;;5.50;;
3415;SDS011;1721;51.238;9.562;2022-10-18T02:52:26;13.90;;;5.27;;
3415;SDS011;1721;51.238;9.562;2022-10-18T02:54:51;12.13;;;5.30;;
3415;SDS011;1721;51.238;9.562;2022-10-18T02:57:17;13.20;;;5.30;;
3415;SDS011;1721;51.238;9.562;2022-10-18T02:59:42;12.35;;;5.63;;
3415;SDS011;1721;51.238;9.562;2022-10-18T03:02:08;13.25;;;5.03;;
3415;SDS011;1721;51.238;9.562;2022-10-18T03:04:34;12.75;;;5.40;;
3415;SDS011;1721;51.238;9.562;2022-10-18T03:06:59;18.10;;;6.25;;
3415;SDS011;1721;51.238;9.562;2022-10-18T03:09:25;13.55;;;5.55;;
3415;SDS011;1721;51.238;9.562;2022-10-18T03:11:50;13.20;;;5.93;;
3415;SDS011;1721;51.238;9.562;2022-10-18T03:14:16;10.50;;;5.40;;
3415;SDS011;1721;51.238;9.562;2022-10-18T03:16:42;12.35;;;5.25;;
3415;SDS011;1721;51.238;9.562;2022-10-18T03:19:07;12.68;;;5.40;;
3415;SDS011;1721;51.238;9.562;2022-10-18T03:21:33;12.15;;;5.32;;
3415;SDS011;1721;51.238;9.562;2022-10-18T03:23:58;12.70;;;5.70;;
3415;SDS011;1721;51.238;9.562;2022-10-18T03:26:24;11.32;;;5.32;;
3415;SDS011;1721;51.238;9.562;2022-10-18T03:28:50;12.20;;;5.85;;
3415;SDS011;1721;51.238;9.562;2022-10-18T03:31:16;13.97;;;5.47;;
3415;SDS011;1721;51.238;9.562;2022-10-18T03:33:41;10.50;;;5.20;;
3415;SDS011;1721;51.238;9.562;2022-10-18T03:36:07;10.83;;;5.13;;
3415;SDS011;1721;51.238;9.562;2022-10-18T03:38:32;11.90;;;5.70;;
3415;SDS011;1721;51.238;9.562;2022-10-18T03:40:58;11.13;;;5.60;;
3415;SDS011;1721;51.238;9.562;2022-10-18T03:43:24;11.60;;;5.53;;
3415;SDS011;1721;51.238;9.562;2022-10-18T03:45:49;14.07;;;5.30;;
3415;SDS011;1721;51.238;9.562;2022-10-18T03:48:15;12.95;;;5.30;;
3415;SDS011;1721;51.238;9.562;2022-10-18T03:50:41;12.25;;;5.88;;
3415;SDS011;1721;51.238;9.562;2022-10-18T03:53:07;15.52;;;5.50;;
3415;SDS011;1721;51.238;9.562;2022-10-18T03:55:33;13.00;;;5.57;;
3415;SDS011;1721;51.238;9.562;2022-10-18T03:57:58;12.63;;;5.20;;
3415;SDS011;1721;51.238;9.562;2022-10-18T04:00:24;13.60;;;5.60;;
3415;SDS011;1721;51.238;9.562;2022-10-18T04:02:49;11.55;;;5.13;;
3415;SDS011;1721;51.238;9.562;2022-10-18T04:05:15;9.38;;;4.60;;
3415;SDS011;1721;51.238;9.562;2022-10-18T04:07:41;9.93;;;4.70;;
3415;SDS011;1721;51.238;9.562;2022-10-18T04:10:06;11.02;;;5.03;;
3415;SDS011;1721;51.238;9.562;2022-10-18T04:12:32;12.37;;;3.97;;
3415;SDS011;1721;51.238;9.562;2022-10-18T04:14:58;10.73;;;4.67;;
3415;SDS011;1721;51.238;9.562;2022-10-18T04:17:23;12.13;;;4.67;;
3415;SDS011;1721;51.238;9.562;2022-10-18T04:19:49;12.20;;;5.00;;
3415;SDS011;1721;51.238;9.562;2022-10-18T04:22:14;79.60;;;30.90;;
3415;SDS011;1721;51.238;9.562;2022-10-18T04:24:40;33.70;;;11.37;;
3415;SDS011;1721;51.238;9.562;2022-10-18T04:27:06;137.07;;;43.92;;
3415;SDS011;1721;51.238;9.562;2022-10-18T04:29:32;21.02;;;7.60;;
3415;SDS011;1721;51.238;9.562;2022-10-18T04:31:58;19.10;;;8.77;;
3415;SDS011;1721;51.238;9.562;2022-10-18T04:34:23;10.70;;;3.97;;
3415;SDS011;1721;51.238;9.562;2022-10-18T04:36:49;9.33;;;3.47;;
3415;SDS011;1721;51.238;9.562;2022-10-18T04:39:15;9.40;;;2.90;;
3415;SDS011;1721;51.238;9.562;2022-10-18T04:41:40;7.43;;;2.90;;
3415;SDS011;1721;51.238;9.562;2022-10-18T04:44:06;8.48;;;3.17;;
3415;SDS011;1721;51.238;9.562;2022-10-18T04:46:32;9.10;;;3.60;;
3415;SDS011;1721;51.238;9.562;2022-10-18T04:48:57;9.13;;;3.55;;
3415;SDS011;1721;51.238;9.562;2022-10-18T04:51:25;8.10;;;3.50;;
3415;SDS011;1721;51.238;9.562;2022-10-18T04:53:54;10.95;;;3.75;;
3415;SDS011;1721;51.238;9.562;2022-10-18T04:56:19;9.57;;;3.50;;
3415;SDS011;1721;51.238;9.562;2022-10-18T04:58:45;10.87;;;3.90;;
3415;SDS011;1721;51.238;9.562;2022-10-18T05:01:11;14.30;;;4.50;;
3415;SDS011;1721;51.238;9.562;2022-10-18T05:03:36;9.18;;;3.95;;
3415;SDS011;1721;51.238;9.562;2022-10-18T05:06:02;9.55;;;3.80;;
3415;SDS011;1721;51.238;9.562;2022-10-18T05:08:30;13.48;;;4.85;;
3415;SDS011;1721;51.238;9.562;2022-10-18T05:10:56;13.82;;;4.55;;
3415;SDS011;1721;51.238;9.562;2022-10-18T05:13:23;9.43;;;3.70;;
3415;SDS011;1721;51.238;9.562;2022-10-18T05:15:48;10.95;;;3.78;;
3415;SDS011;1721;51.238;9.562;2022-10-18T05:18:14;10.90;;;3.80;;
3415;SDS011;1721;51.238;9.562;2022-10-18T05:20:40;8.93;;;3.57;;
3415;SDS011;1721;51.238;9.562;2022-10-18T05:23:05;8.57;;;3.90;;
3415;SDS011;1721;51.238;9.562;2022-10-18T05:25:34;8.33;;;3.30;;
3415;SDS011;1721;51.238;9.562;2022-10-18T05:28:02;7.38;;;2.60;;
3415;SDS011;1721;51.238;9.562;2022-10-18T05:30:28;7.20;;;2.90;;
3415;SDS011;1721;51.238;9.562;2022-10-18T05:32:54;8.50;;;2.70;;
3415;SDS011;1721;51.238;9.562;2022-10-18T05:35:19;8.33;;;3.50;;
3415;SDS011;1721;51.238;9.562;2022-10-18T05:37:45;7.50;;;2.90;;
3415;SDS011;1721;51.238;9.562;2022-10-18T05:40:10;7.70;;;2.90;;
3415;SDS011;1721;51.238;9.562;2022-10-18T05:42:36;7.80;;;3.20;;
3415;SDS011;1721;51.238;9.562;2022-10-18T05:45:02;8.27;;;2.75;;
3415;SDS011;1721;51.238;9.562;2022-10-18T05:47:28;8.85;;;3.00;;
3415;SDS011;1721;51.238;9.562;2022-10-18T05:49:53;8.00;;;2.75;;
3415;SDS011;1721;51.238;9.562;2022-10-18T05:52:19;8.73;;;2.70;;
3415;SDS011;1721;51.238;9.562;2022-10-18T05:54:44;9.40;;;2.90;;
3415;SDS011;1721;51.238;9.562;2022-10-18T05:57:10;5.97;;;2.33;;
3415;SDS011;1721;51.238;9.562;2022-10-18T05:59:35;5.47;;;2.20;;
3415;SDS011;1721;51.238;9.562;2022-10-18T06:02:01;7.17;;;2.53;;
3415;SDS011;1721;51.238;9.562;2022-10-18T06:04:27;5.73;;;2.20;;
3415;SDS011;1721;51.238;9.562;2022-10-18T06:06:52;8.33;;;2.50;;
3415;SDS011;1721;51.238;9.562;2022-10-18T06:09:19;9.27;;;2.10;;
3415;SDS011;1721;51.238;9.562;2022-10-18T06:11:45;6.43;;;2.00;;
3415;SDS011;1721;51.238;9.562;2022-10-18T06:14:11;5.13;;;1.90;;
3415;SDS011;1721;51.238;9.562;2022-10-18T06:16:36;5.77;;;1.40;;
3415;SDS011;1721;51.238;9.562;2022-10-18T06:19:02;6.50;;;1.90;;
3415;SDS011;1721;51.238;9.562;2022-10-18T06:21:28;4.67;;;1.60;;
3415;SDS011;1721;51.238;9.562;2022-10-18T06:23:55;5.90;;;2.10;;
3415;SDS011;1721;51.238;9.562;2022-10-18T06:26:22;6.88;;;2.15;;
3415;SDS011;1721;51.238;9.562;2022-10-18T06:28:48;6.60;;;2.20;;
3415;SDS011;1721;51.238;9.562;2022-10-18T06:31:14;6.17;;;2.10;;
3415;SDS011;1721;51.238;9.562;2022-10-18T06:33:40;11.57;;;2.45;;
3415;SDS011;1721;51.238;9.562;2022-10-18T06:36:08;22.98;;;2.70;;
3415;SDS011;1721;51.238;9.562;2022-10-18T06:38:36;10.73;;;1.77;;
3415;SDS011;1721;51.238;9.562;2022-10-18T06:41:02;7.65;;;2.40;;
3415;SDS011;1721;51.238;9.562;2022-10-18T06:43:28;24.02;;;2.88;;
3415;SDS011;1721;51.238;9.562;2022-10-18T06:45:54;24.52;;;2.90;;
3415;SDS011;1721;51.238;9.562;2022-10-18T06:48:20;7.32;;;2.58;;
3415;SDS011;1721;51.238;9.562;2022-10-18T06:50:55;8.68;;;2.88;;
3415;SDS011;1721;51.238;9.562;2022-10-18T06:53:26;20.33;;;3.63;;
3415;SDS011;1721;51.238;9.562;2022-10-18T06:56:00;20.02;;;3.60;;
3415;SDS011;1721;51.238;9.562;2022-10-18T06:58:35;36.83;;;4.82;;
3415;SDS011;1721;51.238;9.562;2022-10-18T07:01:05;103.60;;;8.55;;
3415;SDS011;1721;51.238;9.562;2022-10-18T07:03:39;130.82;;;9.93;;
3415;SDS011;1721;51.238;9.562;2022-10-18T07:06:06;99.55;;;8.70;;
3415;SDS011;1721;51.238;9.562;2022-10-18T07:08:32;50.50;;;6.57;;
3415;SDS011;1721;51.238;9.562;2022-10-18T07:10:58;23.55;;;3.92;;
3415;SDS011;1721;51.238;9.562;2022-10-18T07:13:26;10.52;;;3.72;;
3415;SDS011;1721;51.238;9.562;2022-10-18T07:16:08;7.95;;;3.38;;
3415;SDS011;1721;51.238;9.562;2022-10-18T07:18:35;8.23;;;3.33;;
3415;SDS011;1721;51.238;9.562;2022-10-18T07:21:03;11.52;;;3.75;;
3415;SDS011;1721;51.238;9.562;2022-10-18T07:23:33;7.78;;;3.05;;
3415;SDS011;1721;51.238;9.562;2022-10-18T07:26:05;9.90;;;3.75;;
3415;SDS011;1721;51.238;9.562;2022-10-18T07:28:37;7.07;;;3.03;;
3415;SDS011;1721;51.238;9.562;2022-10-18T07:31:03;7.88;;;3.03;;
3415;SDS011;1721;51.238;9.562;2022-10-18T07:33:33;7.72;;;3.00;;
3415;SDS011;1721;51.238;9.562;2022-10-18T07:36:00;6.80;;;2.90;;
3415;SDS011;1721;51.238;9.562;2022-10-18T07:38:27;7.60;;;2.30;;
3415;SDS011;1721;51.238;9.562;2022-10-18T07:40:59;6.55;;;2.50;;
3415;SDS011;1721;51.238;9.562;2022-10-18T07:43:26;7.23;;;2.00;;
3415;SDS011;1721;51.238;9.562;2022-10-18T07:45:56;6.57;;;2.13;;
3415;SDS011;1721;51.238;9.562;2022-10-18T07:48:23;6.30;;;2.40;;
3415;SDS011;1721;51.238;9.562;2022-10-18T07:50:49;6.18;;;2.40;;
3415;SDS011;1721;51.238;9.562;2022-10-18T07:53:15;5.67;;;2.40;;
3415;SDS011;1721;51.238;9.562;2022-10-18T07:55:40;6.40;;;2.40;;
3415;SDS011;1721;51.238;9.562;2022-10-18T07:58:06;7.10;;;2.38;;
3415;SDS011;1721;51.238;9.562;2022-10-18T08:00:32;5.45;;;2.33;;
3415;SDS011;1721;51.238;9.562;2022-10-18T08:02:58;6.82;;;2.50;;
3415;SDS011;1721;51.238;9.562;2022-10-18T08:05:24;6.70;;;2.40;;
3415;SDS011;1721;51.238;9.562;2022-10-18T08:07:51;5.70;;;2.20;;
3415;SDS011;1721;51.238;9.562;2022-10-18T08:10:17;5.95;;;2.45;;
3415;SDS011;1721;51.238;9.562;2022-10-18T08:12:44;8.48;;;2.40;;
3415;SDS011;1721;51.238;9.562;2022-10-18T08:15:09;10.57;;;2.63;;
3415;SDS011;1721;51.238;9.562;2022-10-18T08:17:35;7.73;;;2.50;;
3415;SDS011;1721;51.238;9.562;2022-10-18T08:20:02;7.65;;;2.50;;
3415;SDS011;1721;51.238;9.562;2022-10-18T08:22:28;5.65;;;2.30;;
3415;SDS011;1721;51.238;9.562;2022-10-18T08:24:54;6.40;;;2.30;;
3415;SDS011;1721;51.238;9.562;2022-10-18T08:27:19;5.40;;;2.00;;
3415;SDS011;1721;51.238;9.562;2022-10-18T08:29:45;6.25;;;2.40;;
3415;SDS011;1721;51.238;9.562;2022-10-18T08:32:11;6.27;;;2.30;;
3415;SDS011;1721;51.238;9.562;2022-10-18T08:34:37;6.05;;;2.10;;
3415;SDS011;1721;51.238;9.562;2022-10-18T08:37:03;6.00;;;1.90;;
3415;SDS011;1721;51.238;9.562;2022-10-18T08:39:28;4.70;;;2.00;;
3415;SDS011;1721;51.238;9.562;2022-10-18T08:42:07;5.45;;;1.95;;
3415;SDS011;1721;51.238;9.562;2022-10-18T08:44:53;4.75;;;1.60;;
3415;SDS011;1721;51.238;9.562;2022-10-18T08:47:20;5.18;;;2.10;;
3415;SDS011;1721;51.238;9.562;2022-10-18T08:50:02;5.57;;;2.20;;
3415;SDS011;1721;51.238;9.562;2022-10-18T08:55:48;8.93;;;2.40;;
3415;SDS011;1721;51.238;9.562;2022-10-18T08:58:18;6.23;;;2.53;;
3415;SDS011;1721;51.238;9.562;2022-10-18T09:00:50;12.23;;;3.30;;
3415;SDS011;1721;51.238;9.562;2022-10-18T09:08:55;8.80;;;3.08;;
3415;SDS011;1721;51.238;9.562;2022-10-18T09:14:25;31.98;;;16.23;;
3415;SDS011;1721;51.238;9.562;2022-10-18T09:20:02;12.10;;;4.90;;
3415;SDS011;1721;51.238;9.562;2022-10-18T09:22:42;10.20;;;4.40;;
3415;SDS011;1721;51.238;9.562;2022-10-18T09:25:21;9.45;;;3.80;;
3415;SDS011;1721;51.238;9.562;2022-10-18T09:28:07;9.75;;;3.47;;
3415;SDS011;1721;51.238;9.562;2022-10-18T09:31:01;10.32;;;4.30;;
3415;SDS011;1721;51.238;9.562;2022-10-18T09:36:20;8.30;;;3.20;;
3415;SDS011;1721;51.238;9.562;2022-10-18T09:38:49;8.37;;;3.50;;
3415;SDS011;1721;51.238;9.562;2022-10-18T09:41:21;8.40;;;3.90;;
3415;SDS011;1721;51.238;9.562;2022-10-18T09:44:17;7.93;;;3.90;;
3415;SDS011;1721;51.238;9.562;2022-10-18T09:47:04;10.27;;;4.20;;
3415;SDS011;1721;51.238;9.562;2022-10-18T09:49:41;10.40;;;4.40;;
3415;SDS011;1721;51.238;9.562;2022-10-18T09:52:14;10.52;;;4.40;;
3415;SDS011;1721;51.238;9.562;2022-10-18T09:55:19;8.88;;;3.88;;
3415;SDS011;1721;51.238;9.562;2022-10-18T09:57:58;7.63;;;3.42;;
3415;SDS011;1721;51.238;9.562;2022-10-18T10:00:33;10.82;;;4.20;;
3415;SDS011;1721;51.238;9.562;2022-10-18T10:03:11;9.25;;;4.25;;
3415;SDS011;1721;51.238;9.562;2022-10-18T10:05:38;8.67;;;3.67;;
3415;SDS011;1721;51.238;9.562;2022-10-18T10:08:04;6.72;;;3.28;;
3415;SDS011;1721;51.238;9.562;2022-10-18T10:10:30;9.35;;;4.05;;
3415;SDS011;1721;51.238;9.562;2022-10-18T10:15:56;8.60;;;3.58;;
3415;SDS011;1721;51.238;9.562;2022-10-18T10:18:32;9.38;;;4.05;;
3415;SDS011;1721;51.238;9.562;2022-10-18T10:21:03;8.93;;;3.78;;
3415;SDS011;1721;51.238;9.562;2022-10-18T10:24:13;8.10;;;3.30;;
3415;SDS011;1721;51.238;9.562;2022-10-18T10:26:22;9.35;;;4.22;;
3415;SDS011;1721;51.238;9.562;2022-10-18T10:28:51;8.50;;;3.80;;
3415;SDS011;1721;51.238;9.562;2022-10-18T10:33:49;8.65;;;3.30;;
3415;SDS011;1721;51.238;9.562;2022-10-18T10:36:26;9.07;;;3.80;;
3415;SDS011;1721;51.238;9.562;2022-10-18T10:39:14;7.70;;;3.35;;
3415;SDS011;1721;51.238;9.562;2022-10-18T10:41:44;9.20;;;3.75;;
3415;SDS011;1721;51.238;9.562;2022-10-18T10:44:22;8.13;;;3.60;;
3415;SDS011;1721;51.238;9.562;2022-10-18T10:46:50;7.38;;;3.53;;
3415;SDS011;1721;51.238;9.562;2022-10-18T10:49:17;8.82;;;3.50;;
3415;SDS011;1721;51.238;9.562;2022-10-18T10:52:00;7.53;;;3.40;;
3415;SDS011;1721;51.238;9.562;2022-10-18T10:54:27;8.15;;;3.53;;
3415;SDS011;1721;51.238;9.562;2022-10-18T10:59:41;11.15;;;3.72;;
3415;SDS011;1721;51.238;9.562;2022-10-18T11:04:44;9.38;;;4.22;;
3415;SDS011;1721;51.238;9.562;2022-10-18T11:07:20;10.82;;;4.30;;
3415;SDS011;1721;51.238;9.562;2022-10-18T11:10:09;8.25;;;3.90;;
3415;SDS011;1721;51.238;9.562;2022-10-18T11:12:44;8.20;;;3.60;;
3415;SDS011;1721;51.238;9.562;2022-10-18T11:15:22;7.78;;;3.83;;
3415;SDS011;1721;51.238;9.562;2022-10-18T11:20:46;9.07;;;3.90;;
3415;SDS011;1721;51.238;9.562;2022-10-18T11:23:17;10.45;;;4.03;;
3415;SDS011;1721;51.238;9.562;2022-10-18T11:25:57;8.15;;;3.88;;
3415;SDS011;1721;51.238;9.562;2022-10-18T11:42:18;8.60;;;3.80;;
3415;SDS011;1721;51.238;9.562;2022-10-18T11:48:01;9.55;;;3.85;;
3415;SDS011;1721;51.238;9.562;2022-10-18T11:53:42;8.65;;;3.65;;
3415;SDS011;1721;51.238;9.562;2022-10-18T11:56:19;7.80;;;3.70;;
3415;SDS011;1721;51.238;9.562;2022-10-18T12:04:55;8.80;;;4.17;;
3415;SDS011;1721;51.238;9.562;2022-10-18T12:07:24;9.50;;;4.13;;
3415;SDS011;1721;51.238;9.562;2022-10-18T12:09:55;12.23;;;4.97;;
3415;SDS011;1721;51.238;9.562;2022-10-18T12:12:32;11.10;;;4.90;;
3415;SDS011;1721;51.238;9.562;2022-10-18T12:15:06;11.13;;;4.20;;
3415;SDS011;1721;51.238;9.562;2022-10-18T12:17:45;11.07;;;4.82;;
3415;SDS011;1721;51.238;9.562;2022-10-18T12:20:26;9.52;;;4.63;;
3415;SDS011;1721;51.238;9.562;2022-10-18T12:25:51;11.93;;;4.60;;
3415;SDS011;1721;51.238;9.562;2022-10-18T12:33:55;11.55;;;4.10;;
3415;SDS011;1721;51.238;9.562;2022-10-18T12:39:06;10.00;;;4.60;;
3415;SDS011;1721;51.238;9.562;2022-10-18T12:41:39;13.23;;;4.60;;
3415;SDS011;1721;51.238;9.562;2022-10-18T12:44:05;9.85;;;4.30;;
3415;SDS011;1721;51.238;9.562;2022-10-18T12:46:43;11.25;;;4.47;;
3415;SDS011;1721;51.238;9.562;2022-10-18T12:49:11;10.75;;;4.80;;
3415;SDS011;1721;51.238;9.562;2022-10-18T12:51:53;10.93;;;5.00;;
3415;SDS011;1721;51.238;9.562;2022-10-18T12:54:25;11.00;;;4.35;;
3415;SDS011;1721;51.238;9.562;2022-10-18T12:56:55;11.17;;;4.60;;
3415;SDS011;1721;51.238;9.562;2022-10-18T13:04:33;10.13;;;4.20;;
3415;SDS011;1721;51.238;9.562;2022-10-18T13:09:35;11.00;;;4.43;;
3415;SDS011;1721;51.238;9.562;2022-10-18T13:21:15;11.23;;;4.50;;
3415;SDS011;1721;51.238;9.562;2022-10-18T13:32:23;9.85;;;4.20;;
3415;SDS011;1721;51.238;9.562;2022-10-18T13:38:25;9.55;;;4.00;;
3415;SDS011;1721;51.238;9.562;2022-10-18T13:41:11;7.95;;;4.13;;
3415;SDS011;1721;51.238;9.562;2022-10-18T13:51:56;9.70;;;4.80;;
3415;SDS011;1721;51.238;9.562;2022-10-18T13:54:37;10.60;;;4.77;;
3415;SDS011;1721;51.238;9.562;2022-10-18T14:00:20;9.23;;;4.80;;
3415;SDS011;1721;51.238;9.562;2022-10-18T14:08:32;11.77;;;5.53;;
3415;SDS011;1721;51.238;9.562;2022-10-18T14:13:42;11.18;;;5.68;;
3415;SDS011;1721;51.238;9.562;2022-10-18T14:19:16;14.40;;;5.70;;
3415;SDS011;1721;51.238;9.562;2022-10-18T14:22:17;12.50;;;5.50;;
3415;SDS011;1721;51.238;9.562;2022-10-18T14:24:47;13.20;;;5.70;;
3415;SDS011;1721;51.238;9.562;2022-10-18T14:27:18;11.10;;;5.40;;
3415;SDS011;1721;51.238;9.562;2022-10-18T14:32:33;13.00;;;6.15;;
3415;SDS011;1721;51.238;9.562;2022-10-18T14:34:59;10.70;;;5.45;;
3415;SDS011;1721;51.238;9.562;2022-10-18T14:37:34;13.13;;;6.10;;
3415;SDS011;1721;51.238;9.562;2022-10-18T14:40:03;11.35;;;5.60;;
3415;SDS011;1721;51.238;9.562;2022-10-18T14:42:29;12.70;;;6.15;;
3415;SDS011;1721;51.238;9.562;2022-10-18T14:44:55;12.07;;;5.80;;
3415;SDS011;1721;51.238;9.562;2022-10-18T14:47:21;12.23;;;5.88;;
3415;SDS011;1721;51.238;9.562;2022-10-18T14:49:49;13.27;;;5.90;;
3415;SDS011;1721;51.238;9.562;2022-10-18T14:52:18;12.80;;;6.47;;
3415;SDS011;1721;51.238;9.562;2022-10-18T14:54:46;13.07;;;6.20;;
3415;SDS011;1721;51.238;9.562;2022-10-18T14:57:21;17.70;;;6.87;;
3415;SDS011;1721;51.238;9.562;2022-10-18T14:59:54;12.38;;;6.57;;
3415;SDS011;1721;51.238;9.562;2022-10-18T15:02:23;15.18;;;6.50;;
3415;SDS011;1721;51.238;9.562;2022-10-18T15:04:54;13.00;;;6.72;;
3415;SDS011;1721;51.238;9.562;2022-10-18T15:07:20;15.07;;;6.80;;
3415;SDS011;1721;51.238;9.562;2022-10-18T15:09:47;15.52;;;7.03;;
3415;SDS011;1721;51.238;9.562;2022-10-18T15:12:13;16.48;;;7.22;;
3415;SDS011;1721;51.238;9.562;2022-10-18T15:14:40;17.27;;;7.78;;
3415;SDS011;1721;51.238;9.562;2022-10-18T15:17:09;26.70;;;7.55;;
3415;SDS011;1721;51.238;9.562;2022-10-18T15:19:56;15.75;;;7.68;;
3415;SDS011;1721;51.238;9.562;2022-10-18T15:22:27;22.65;;;8.23;;
3415;SDS011;1721;51.238;9.562;2022-10-18T15:27:54;16.38;;;7.00;;
3415;SDS011;1721;51.238;9.562;2022-10-18T15:30:23;17.83;;;7.25;;
3415;SDS011;1721;51.238;9.562;2022-10-18T15:33:00;17.30;;;7.40;;
3415;SDS011;1721;51.238;9.562;2022-10-18T15:35:28;16.73;;;7.13;;
3415;SDS011;1721;51.238;9.562;2022-10-18T15:37:59;18.77;;;6.88;;
3415;SDS011;1721;51.238;9.562;2022-10-18T15:40:38;15.13;;;6.90;;
3415;SDS011;1721;51.238;9.562;2022-10-18T15:43:05;16.98;;;7.85;;
3415;SDS011;1721;51.238;9.562;2022-10-18T15:45:57;14.45;;;6.78;;
3415;SDS011;1721;51.238;9.562;2022-10-18T15:48:25;15.40;;;7.10;;
3415;SDS011;1721;51.238;9.562;2022-10-18T15:50:54;17.23;;;6.70;;
3415;SDS011;1721;51.238;9.562;2022-10-18T15:55:46;18.05;;;6.90;;
3415;SDS011;1721;51.238;9.562;2022-10-18T16:00:46;19.65;;;7.50;;
3415;SDS011;1721;51.238;9.562;2022-10-18T16:03:13;16.50;;;7.10;;
3415;SDS011;1721;51.238;9.562;2022-10-18T16:05:41;19.65;;;6.78;;
3415;SDS011;1721;51.238;9.562;2022-10-18T16:08:23;19.48;;;7.15;;
3415;SDS011;1721;51.238;9.562;2022-10-18T16:10:54;17.27;;;7.30;;
3415;SDS011;1721;51.238;9.562;2022-10-18T16:13:20;13.47;;;6.60;;
3415;SDS011;1721;51.238;9.562;2022-10-18T16:15:46;16.00;;;6.50;;
3415;SDS011;1721;51.238;9.562;2022-10-18T16:18:13;15.30;;;6.00;;
3415;SDS011;1721;51.238;9.562;2022-10-18T16:20:40;13.93;;;6.10;;
3415;SDS011;1721;51.238;9.562;2022-10-18T16:23:17;21.00;;;6.20;;
3415;SDS011;1721;51.238;9.562;2022-10-18T16:25:48;15.27;;;7.13;;
3415;SDS011;1721;51.238;9.562;2022-10-18T16:28:15;13.23;;;6.00;;
3415;SDS011;1721;51.238;9.562;2022-10-18T16:30:43;16.50;;;7.10;;
3415;SDS011;1721;51.238;9.562;2022-10-18T16:33:14;23.13;;;9.33;;
3415;SDS011;1721;51.238;9.562;2022-10-18T16:35:39;16.13;;;6.90;;
3415;SDS011;1721;51.238;9.562;2022-10-18T16:38:05;19.20;;;7.00;;
3415;SDS011;1721;51.238;9.562;2022-10-18T16:40:51;19.97;;;6.60;;
3415;SDS011;1721;51.238;9.562;2022-10-18T16:43:17;17.40;;;6.60;;
3415;SDS011;1721;51.238;9.562;2022-10-18T16:45:43;19.53;;;7.70;;
3415;SDS011;1721;51.238;9.562;2022-10-18T16:48:13;23.37;;;7.70;;
3415;SDS011;1721;51.238;9.562;2022-10-18T16:50:42;22.00;;;7.17;;
3415;SDS011;1721;51.238;9.562;2022-10-18T16:53:08;24.60;;;8.33;;
3415;SDS011;1721;51.238;9.562;2022-10-18T16:55:34;21.20;;;7.50;;
3415;SDS011;1721;51.238;9.562;2022-10-18T16:58:01;24.47;;;9.83;;
3415;SDS011;1721;51.238;9.562;2022-10-18T17:00:26;25.37;;;8.30;;
3415;SDS011;1721;51.238;9.562;2022-10-18T17:02:52;21.90;;;9.00;;
3415;SDS011;1721;51.238;9.562;2022-10-18T17:05:18;24.73;;;9.00;;
3415;SDS011;1721;51.238;9.562;2022-10-18T17:07:43;25.00;;;8.30;;
3415;SDS011;1721;51.238;9.562;2022-10-18T17:10:10;25.47;;;9.30;;
3415;SDS011;1721;51.238;9.562;2022-10-18T17:12:40;25.27;;;8.67;;
3415;SDS011;1721;51.238;9.562;2022-10-18T17:15:07;17.90;;;7.10;;
3415;SDS011;1721;51.238;9.562;2022-10-18T17:17:34;20.50;;;6.80;;
3415;SDS011;1721;51.238;9.562;2022-10-18T17:20:00;24.57;;;8.43;;
3415;SDS011;1721;51.238;9.562;2022-10-18T17:22:25;19.93;;;7.80;;
3415;SDS011;1721;51.238;9.562;2022-10-18T17:24:51;31.83;;;7.00;;
3415;SDS011;1721;51.238;9.562;2022-10-18T17:27:16;22.00;;;7.10;;
3415;SDS011;1721;51.238;9.562;2022-10-18T17:29:42;18.80;;;6.43;;
3415;SDS011;1721;51.238;9.562;2022-10-18T17:32:08;15.07;;;5.70;;
3415;SDS011;1721;51.238;9.562;2022-10-18T17:34:33;18.70;;;6.30;;
3415;SDS011;1721;51.238;9.562;2022-10-18T17:37:00;16.75;;;6.32;;
3415;SDS011;1721;51.238;9.562;2022-10-18T17:39:28;17.60;;;6.68;;
3415;SDS011;1721;51.238;9.562;2022-10-18T17:41:54;16.67;;;6.43;;
3415;SDS011;1721;51.238;9.562;2022-10-18T17:44:20;15.50;;;6.53;;
3415;SDS011;1721;51.238;9.562;2022-10-18T17:46:46;17.10;;;6.45;;
3415;SDS011;1721;51.238;9.562;2022-10-18T17:49:12;17.20;;;6.73;;